createdAt,value
2023-03-25T00:00:10.761Z,0.00
2023-03-25T00:01:10.740Z,0.00
2023-03-25T00:02:10.811Z,0.00
2023-03-25T00:03:10.787Z,0.00
2023-03-25T00:04:10.707Z,0.00
2023-03-25T00:05:10.713Z,0.00
2023-03-25T00:06:10.782Z,0.00
2023-03-25T00:07:10.677Z,0.00
2023-03-25T00:08:10.724Z,0.00
2023-03-25T00:09:10.678Z,0.00
2023-03-25T00:10:10.709Z,0.00
2023-03-25T00:11:10.658Z,0.00
2023-03-25T00:12:10.627Z,0.00
2023-03-25T00:13:10.653Z,0.00
2023-03-25T00:14:10.621Z,0.00
2023-03-25T00:15:10.591Z,0.00
2023-03-25T00:16:10.868Z,0.00
2023-03-25T00:17:10.568Z,0.00
2023-03-25T00:18:10.558Z,0.00
2023-03-25T00:19:10.565Z,0.00
2023-03-25T00:20:10.551Z,0.00
2023-03-25T00:21:10.634Z,0.00
2023-03-25T00:22:10.549Z,0.00
2023-03-25T00:23:10.546Z,0.00
2023-03-25T00:24:10.503Z,0.00
2023-03-25T00:25:10.505Z,0.00
2023-03-25T00:26:10.474Z,0.00
2023-03-25T00:27:10.476Z,0.00
2023-03-25T00:28:10.482Z,0.00
2023-03-25T00:29:10.477Z,0.00
2023-03-25T00:30:10.431Z,0.00
2023-03-25T00:31:10.452Z,0.00
2023-03-25T00:32:10.421Z,0.00
2023-03-25T00:33:10.442Z,0.00
2023-03-25T00:34:10.402Z,0.00
2023-03-25T00:35:10.394Z,0.00
2023-03-25T00:36:10.401Z,0.00
2023-03-25T00:37:10.375Z,0.00
2023-03-25T00:38:10.386Z,0.00
2023-03-25T00:39:10.371Z,0.00
2023-03-25T00:40:10.353Z,0.00
2023-03-25T00:41:10.362Z,0.00
2023-03-25T00:42:10.320Z,0.00
2023-03-25T00:43:10.305Z,0.00
2023-03-25T00:44:10.292Z,0.00
2023-03-25T00:45:10.280Z,0.00
2023-03-25T00:46:10.368Z,0.00
2023-03-25T00:47:10.354Z,0.00
2023-03-25T00:48:10.271Z,0.00
2023-03-25T00:49:10.245Z,0.00
2023-03-25T00:50:10.235Z,0.00
2023-03-25T00:51:10.428Z,0.00
2023-03-25T00:52:10.271Z,0.00
2023-03-25T00:53:10.213Z,0.00
2023-03-25T00:54:10.209Z,0.00
2023-03-25T00:55:10.177Z,0.00
2023-03-25T00:56:10.165Z,0.00
2023-03-25T00:57:10.206Z,0.00
2023-03-25T00:58:10.201Z,0.00
2023-03-25T00:59:10.139Z,0.00
2023-03-25T01:00:10.138Z,0.00
2023-03-25T01:01:10.194Z,0.00
2023-03-25T01:02:10.152Z,0.00
2023-03-25T01:03:10.179Z,0.00
2023-03-25T01:04:10.149Z,0.00
2023-03-25T01:05:10.074Z,0.00
2023-03-25T01:06:10.171Z,0.00
2023-03-25T01:07:10.063Z,0.00
2023-03-25T01:08:10.046Z,0.00
2023-03-25T01:09:10.053Z,0.00
2023-03-25T01:10:10.078Z,0.00
2023-03-25T01:11:10.016Z,0.00
2023-03-25T01:12:10.002Z,0.00
2023-03-25T01:13:09.987Z,0.00
2023-03-25T01:14:09.995Z,0.00
2023-03-25T01:15:10.049Z,0.00
2023-03-25T01:16:09.992Z,0.00
2023-03-25T01:17:14.590Z,0.00
2023-03-25T01:18:09.945Z,0.00
2023-03-25T01:19:09.917Z,0.00
2023-03-25T01:20:09.992Z,0.00
2023-03-25T01:21:09.925Z,0.00
2023-03-25T01:22:09.911Z,0.00
2023-03-25T01:23:09.885Z,0.00
2023-03-25T01:24:09.912Z,0.00
2023-03-25T01:25:09.929Z,0.00
2023-03-25T01:26:09.932Z,0.00
2023-03-25T01:27:09.867Z,0.00
2023-03-25T01:28:09.842Z,0.00
2023-03-25T01:29:09.906Z,0.00
2023-03-25T01:30:09.853Z,0.00
2023-03-25T01:31:09.880Z,0.00
2023-03-25T01:32:09.798Z,0.00
2023-03-25T01:33:09.818Z,0.00
2023-03-25T01:34:09.764Z,0.00
2023-03-25T01:35:09.774Z,0.00
2023-03-25T01:36:09.891Z,0.00
2023-03-25T01:37:09.752Z,0.00
2023-03-25T01:38:10.511Z,0.00
2023-03-25T01:39:09.720Z,0.00
2023-03-25T01:40:09.699Z,0.00
2023-03-25T01:41:09.695Z,0.00
2023-03-25T01:42:09.735Z,0.00
2023-03-25T01:43:09.724Z,0.00
2023-03-25T01:44:09.688Z,0.00
2023-03-25T01:45:09.664Z,0.00
2023-03-25T01:46:09.686Z,0.00
2023-03-25T01:47:09.761Z,0.00
2023-03-25T01:48:09.660Z,0.00
2023-03-25T01:49:09.605Z,0.00
2023-03-25T01:50:09.603Z,0.00
2023-03-25T01:51:09.584Z,0.00
2023-03-25T01:52:09.623Z,0.00
2023-03-25T01:53:09.580Z,0.00
2023-03-25T01:54:09.560Z,0.00
2023-03-25T01:55:09.558Z,0.00
2023-03-25T01:56:09.541Z,0.00
2023-03-25T01:57:09.578Z,0.00
2023-03-25T01:58:09.576Z,0.00
2023-03-25T01:59:09.496Z,0.00
2023-03-25T02:00:09.536Z,0.00
2023-03-25T02:01:09.530Z,0.00
2023-03-25T02:02:09.504Z,0.00
2023-03-25T02:03:09.513Z,0.00
2023-03-25T02:04:09.472Z,0.00
2023-03-25T02:05:09.434Z,0.00
2023-03-25T02:06:09.436Z,0.00
2023-03-25T02:07:09.454Z,0.00
2023-03-25T02:08:09.432Z,0.00
2023-03-25T02:09:09.432Z,0.00
2023-03-25T02:10:09.501Z,0.00
2023-03-25T02:11:09.370Z,0.00
2023-03-25T02:12:09.381Z,0.00
2023-03-25T02:13:09.399Z,0.00
2023-03-25T02:14:09.387Z,0.00
2023-03-25T02:15:09.378Z,0.00
2023-03-25T02:16:09.365Z,0.00
2023-03-25T02:17:09.339Z,0.00
2023-03-25T02:18:09.337Z,0.00
2023-03-25T02:19:09.343Z,0.00
2023-03-25T02:20:09.324Z,0.00
2023-03-25T02:21:09.298Z,0.00
2023-03-25T02:22:09.266Z,0.00
2023-03-25T02:23:09.265Z,0.00
2023-03-25T02:24:09.242Z,0.00
2023-03-25T02:25:09.216Z,0.00
2023-03-25T02:26:09.259Z,0.00
2023-03-25T02:27:09.219Z,0.00
2023-03-25T02:28:09.217Z,0.00
2023-03-25T02:29:09.183Z,0.00
2023-03-25T02:30:09.195Z,0.00
2023-03-25T02:31:09.248Z,0.00
2023-03-25T02:32:09.287Z,0.00
2023-03-25T02:33:09.219Z,0.00
2023-03-25T02:34:09.147Z,0.00
2023-03-25T02:35:09.135Z,0.00
2023-03-25T02:36:09.144Z,0.00
2023-03-25T02:37:09.159Z,0.00
2023-03-25T02:38:09.125Z,0.00
2023-03-25T02:39:09.085Z,0.00
2023-03-25T02:40:09.090Z,0.00
2023-03-25T02:41:09.064Z,0.00
2023-03-25T02:42:09.100Z,0.00
2023-03-25T02:43:09.036Z,0.00
2023-03-25T02:44:09.031Z,0.00
2023-03-25T02:45:09.034Z,0.00
2023-03-25T02:46:09.106Z,0.00
2023-03-25T02:47:08.997Z,0.00
2023-03-25T02:48:09.008Z,0.00
2023-03-25T02:49:09.002Z,0.00
2023-03-25T02:50:09.091Z,0.00
2023-03-25T02:51:08.994Z,0.00
2023-03-25T02:52:08.957Z,0.00
2023-03-25T02:53:08.946Z,0.00
2023-03-25T02:54:08.973Z,0.00
2023-03-25T02:55:08.932Z,0.00
2023-03-25T02:56:08.945Z,0.00
2023-03-25T02:57:08.942Z,0.00
2023-03-25T02:58:08.936Z,0.00
2023-03-25T02:59:08.916Z,0.00
2023-03-25T03:00:08.880Z,0.00
2023-03-25T03:01:08.934Z,0.00
2023-03-25T03:02:08.897Z,0.00
2023-03-25T03:03:09.068Z,0.00
2023-03-25T03:04:08.817Z,0.00
2023-03-25T03:05:08.892Z,0.00
2023-03-25T03:06:08.831Z,0.00
2023-03-25T03:07:08.779Z,0.00
2023-03-25T03:08:08.816Z,0.00
2023-03-25T03:09:08.766Z,0.00
2023-03-25T03:10:08.779Z,0.00
2023-03-25T03:11:08.894Z,0.00
2023-03-25T03:12:08.813Z,0.00
2023-03-25T03:13:08.737Z,0.00
2023-03-25T03:14:08.799Z,0.00
2023-03-25T03:15:08.764Z,0.00
2023-03-25T03:16:08.695Z,0.00
2023-03-25T03:17:08.958Z,0.00
2023-03-25T03:18:08.850Z,0.00
2023-03-25T03:19:08.654Z,0.00
2023-03-25T03:20:08.682Z,0.00
2023-03-25T03:21:08.633Z,0.00
2023-03-25T03:22:08.670Z,0.00
2023-03-25T03:23:08.653Z,0.00
2023-03-25T03:24:08.634Z,0.00
2023-03-25T03:25:08.609Z,0.00
2023-03-25T03:26:08.622Z,0.00
2023-03-25T03:27:08.589Z,0.00
2023-03-25T03:28:08.567Z,0.00
2023-03-25T03:29:08.589Z,0.00
2023-03-25T03:30:08.565Z,0.00
2023-03-25T03:31:08.633Z,0.00
2023-03-25T03:32:08.690Z,0.00
2023-03-25T03:33:08.564Z,0.00
2023-03-25T03:34:08.547Z,0.00
2023-03-25T03:35:08.504Z,0.00
2023-03-25T03:36:08.543Z,0.00
2023-03-25T03:37:08.485Z,0.00
2023-03-25T03:38:08.458Z,0.00
2023-03-25T03:39:08.496Z,0.00
2023-03-25T03:40:08.440Z,0.00
2023-03-25T03:41:08.451Z,0.00
2023-03-25T03:42:08.510Z,0.00
2023-03-25T03:43:08.413Z,0.00
2023-03-25T03:44:08.430Z,0.00
2023-03-25T03:45:08.401Z,0.00
2023-03-25T03:46:08.449Z,0.00
2023-03-25T03:47:13.129Z,0.00
2023-03-25T03:48:08.443Z,0.00
2023-03-25T03:49:08.368Z,0.00
2023-03-25T03:50:08.366Z,0.00
2023-03-25T03:51:08.348Z,0.00
2023-03-25T03:52:08.886Z,0.00
2023-03-25T03:53:08.359Z,0.00
2023-03-25T03:54:08.285Z,0.00
2023-03-25T03:55:08.365Z,0.00
2023-03-25T03:56:08.274Z,0.00
2023-03-25T03:57:08.312Z,0.00
2023-03-25T03:58:08.248Z,0.00
2023-03-25T03:59:08.339Z,0.00
2023-03-25T04:00:08.241Z,0.00
2023-03-25T04:01:08.260Z,0.00
2023-03-25T04:02:08.333Z,0.00
2023-03-25T04:03:08.303Z,0.00
2023-03-25T04:04:08.222Z,0.00
2023-03-25T04:05:08.202Z,0.00
2023-03-25T04:06:08.185Z,0.00
2023-03-25T04:07:08.151Z,0.00
2023-03-25T04:08:09.036Z,0.00
2023-03-25T04:09:08.130Z,0.00
2023-03-25T04:10:08.156Z,0.00
2023-03-25T04:11:08.140Z,0.00
2023-03-25T04:12:08.094Z,0.00
2023-03-25T04:13:08.113Z,0.00
2023-03-25T04:14:08.080Z,0.00
2023-03-25T04:15:08.090Z,0.00
2023-03-25T04:16:08.135Z,0.00
2023-03-25T04:17:08.052Z,0.00
2023-03-25T04:18:08.089Z,0.00
2023-03-25T04:19:15.522Z,0.00
2023-03-25T04:20:08.016Z,0.00
2023-03-25T04:21:08.030Z,0.00
2023-03-25T04:22:08.029Z,0.00
2023-03-25T04:23:07.998Z,0.00
2023-03-25T04:24:07.987Z,0.00
2023-03-25T04:25:07.974Z,0.00
2023-03-25T04:26:07.983Z,0.00
2023-03-25T04:27:07.953Z,0.00
2023-03-25T04:28:07.953Z,0.00
2023-03-25T04:29:07.933Z,0.00
2023-03-25T04:30:07.967Z,0.00
2023-03-25T04:31:08.003Z,0.00
2023-03-25T04:32:07.968Z,0.00
2023-03-25T04:33:07.882Z,0.00
2023-03-25T04:34:07.935Z,0.00
2023-03-25T04:35:07.879Z,0.00
2023-03-25T04:36:07.889Z,0.00
2023-03-25T04:37:07.837Z,0.00
2023-03-25T04:38:07.872Z,0.00
2023-03-25T04:39:07.879Z,0.00
2023-03-25T04:40:07.839Z,0.00
2023-03-25T04:41:07.824Z,0.00
2023-03-25T04:42:07.820Z,0.00
2023-03-25T04:43:07.800Z,0.00
2023-03-25T04:44:08.064Z,0.00
2023-03-25T04:45:07.761Z,0.00
2023-03-25T04:46:07.777Z,0.00
2023-03-25T04:47:07.777Z,0.00
2023-03-25T04:48:07.724Z,0.00
2023-03-25T04:49:07.771Z,0.00
2023-03-25T04:50:07.719Z,0.00
2023-03-25T04:51:07.695Z,0.00
2023-03-25T04:52:07.676Z,0.00
2023-03-25T04:53:07.675Z,0.00
2023-03-25T04:54:07.695Z,0.00
2023-03-25T04:55:07.651Z,0.00
2023-03-25T04:56:07.669Z,0.00
2023-03-25T04:57:07.678Z,0.00
2023-03-25T04:58:07.612Z,0.00
2023-03-25T04:59:07.606Z,0.00
2023-03-25T05:00:07.595Z,0.00
2023-03-25T05:01:07.667Z,0.00
2023-03-25T05:02:07.593Z,0.00
2023-03-25T05:03:07.606Z,0.00
2023-03-25T05:04:07.596Z,0.00
2023-03-25T05:05:07.568Z,0.00
2023-03-25T05:06:07.532Z,0.00
2023-03-25T05:07:07.526Z,0.00
2023-03-25T05:08:07.504Z,0.00
2023-03-25T05:09:07.499Z,0.00
2023-03-25T05:10:07.652Z,0.00
2023-03-25T05:11:07.493Z,0.00
2023-03-25T05:12:07.461Z,0.00
2023-03-25T05:13:07.548Z,0.00
2023-03-25T05:14:07.457Z,0.00
2023-03-25T05:15:07.432Z,0.00
2023-03-25T05:16:07.464Z,0.00
2023-03-25T05:17:07.485Z,0.00
2023-03-25T05:18:07.428Z,0.00
2023-03-25T05:19:07.433Z,0.00
2023-03-25T05:20:07.375Z,0.00
2023-03-25T05:21:07.370Z,0.00
2023-03-25T05:22:07.353Z,0.00
2023-03-25T05:23:07.398Z,0.00
2023-03-25T05:24:07.368Z,0.00
2023-03-25T05:25:07.361Z,0.00
2023-03-25T05:26:07.340Z,0.00
2023-03-25T05:27:07.314Z,0.00
2023-03-25T05:28:07.328Z,0.00
2023-03-25T05:29:07.286Z,0.00
2023-03-25T05:30:07.337Z,0.00
2023-03-25T05:31:07.308Z,0.00
2023-03-25T05:32:07.357Z,0.00
2023-03-25T05:33:07.277Z,0.00
2023-03-25T05:34:07.229Z,0.00
2023-03-25T05:35:07.268Z,0.00
2023-03-25T05:36:07.234Z,0.00
2023-03-25T05:37:07.201Z,0.00
2023-03-25T05:38:07.188Z,0.00
2023-03-25T05:39:07.190Z,0.00
2023-03-25T05:40:14.775Z,0.00
2023-03-25T05:41:08.160Z,0.00
2023-03-25T05:42:07.162Z,0.00
2023-03-25T05:43:07.140Z,0.00
2023-03-25T05:44:07.165Z,0.00
2023-03-25T05:45:07.117Z,0.00
2023-03-25T05:46:07.157Z,0.00
2023-03-25T05:47:07.095Z,0.00
2023-03-25T05:48:07.142Z,0.00
2023-03-25T05:49:07.116Z,0.00
2023-03-25T05:50:07.067Z,0.00
2023-03-25T05:51:07.058Z,0.00
2023-03-25T05:52:07.058Z,0.00
2023-03-25T05:53:07.078Z,0.00
2023-03-25T05:54:07.082Z,0.00
2023-03-25T05:55:07.032Z,0.00
2023-03-25T05:56:07.014Z,0.00
2023-03-25T05:57:07.039Z,0.00
2023-03-25T05:58:07.002Z,0.00
2023-03-25T05:59:06.969Z,0.00
2023-03-25T06:00:06.978Z,0.00
2023-03-25T06:01:09.277Z,0.00
2023-03-25T06:02:08.049Z,0.00
2023-03-25T06:03:07.090Z,0.00
2023-03-25T06:04:06.970Z,0.00
2023-03-25T06:05:06.955Z,0.00
2023-03-25T06:06:06.890Z,0.00
2023-03-25T06:07:06.887Z,0.00
2023-03-25T06:08:06.912Z,0.00
2023-03-25T06:09:06.877Z,0.00
2023-03-25T06:10:06.857Z,0.00
2023-03-25T06:11:06.852Z,0.00
2023-03-25T06:12:06.833Z,0.00
2023-03-25T06:13:06.832Z,0.00
2023-03-25T06:14:06.967Z,0.00
2023-03-25T06:15:06.801Z,0.00
2023-03-25T06:16:06.907Z,0.00
2023-03-25T06:17:06.790Z,0.00
2023-03-25T06:18:06.887Z,0.00
2023-03-25T06:19:06.764Z,0.00
2023-03-25T06:20:06.764Z,0.00
2023-03-25T06:21:06.741Z,0.00
2023-03-25T06:22:06.740Z,0.00
2023-03-25T06:23:06.762Z,0.00
2023-03-25T06:24:06.712Z,0.00
2023-03-25T06:25:06.693Z,0.00
2023-03-25T06:26:06.683Z,0.00
2023-03-25T06:27:06.668Z,0.00
2023-03-25T06:28:06.671Z,0.00
2023-03-25T06:29:06.676Z,0.00
2023-03-25T06:30:06.688Z,0.00
2023-03-25T06:31:06.671Z,0.00
2023-03-25T06:32:06.633Z,0.00
2023-03-25T06:33:06.641Z,0.00
2023-03-25T06:34:06.603Z,0.00
2023-03-25T06:35:06.667Z,0.00
2023-03-25T06:36:06.614Z,0.00
2023-03-25T06:37:06.571Z,0.00
2023-03-25T06:38:06.580Z,0.00
2023-03-25T06:39:06.562Z,0.00
2023-03-25T06:40:06.544Z,0.00
2023-03-25T06:41:06.532Z,0.00
2023-03-25T06:42:06.572Z,0.00
2023-03-25T06:43:06.509Z,0.00
2023-03-25T06:44:06.492Z,0.00
2023-03-25T06:45:06.487Z,0.00
2023-03-25T06:46:06.617Z,0.00
2023-03-25T06:47:06.470Z,0.00
2023-03-25T06:48:06.477Z,0.00
2023-03-25T06:49:06.479Z,0.00
2023-03-25T06:50:06.427Z,0.00
2023-03-25T06:51:06.423Z,0.00
2023-03-25T06:52:06.406Z,0.00
2023-03-25T06:53:06.493Z,0.00
2023-03-25T06:54:06.402Z,0.00
2023-03-25T06:55:06.468Z,0.00
2023-03-25T06:56:06.369Z,0.00
2023-03-25T06:57:06.677Z,0.00
2023-03-25T06:58:06.343Z,0.00
2023-03-25T06:59:06.348Z,0.00
2023-03-25T07:00:06.334Z,0.00
2023-03-25T07:01:06.428Z,0.00
2023-03-25T07:02:06.416Z,0.00
2023-03-25T07:03:06.393Z,0.00
2023-03-25T07:04:06.288Z,0.00
2023-03-25T07:05:06.373Z,0.00
2023-03-25T07:06:06.336Z,0.00
2023-03-25T07:07:06.267Z,0.00
2023-03-25T07:08:06.270Z,0.00
2023-03-25T07:09:06.233Z,0.00
2023-03-25T07:10:06.219Z,0.00
2023-03-25T07:11:06.247Z,0.00
2023-03-25T07:12:08.829Z,0.00
2023-03-25T07:13:06.190Z,0.00
2023-03-25T07:14:06.177Z,0.00
2023-03-25T07:15:06.173Z,0.00
2023-03-25T07:16:06.225Z,0.00
2023-03-25T07:17:06.250Z,0.00
2023-03-25T07:18:06.177Z,0.00
2023-03-25T07:19:06.158Z,0.00
2023-03-25T07:20:06.141Z,0.00
2023-03-25T07:21:06.225Z,0.00
2023-03-25T07:22:06.099Z,0.00
2023-03-25T07:23:06.130Z,0.00
2023-03-25T07:24:06.093Z,0.00
2023-03-25T07:25:06.118Z,0.00
2023-03-25T07:26:06.106Z,0.00
2023-03-25T07:27:06.138Z,0.00
2023-03-25T07:28:06.051Z,0.00
2023-03-25T07:29:06.083Z,0.00
2023-03-25T07:30:06.017Z,0.00
2023-03-25T07:31:06.052Z,0.00
2023-03-25T07:32:05.996Z,0.00
2023-03-25T07:33:06.021Z,0.00
2023-03-25T07:34:06.001Z,0.00
2023-03-25T07:35:06.070Z,0.00
2023-03-25T07:36:05.951Z,0.00
2023-03-25T07:37:05.962Z,0.00
2023-03-25T07:38:05.927Z,0.00
2023-03-25T07:39:05.990Z,0.00
2023-03-25T07:40:05.997Z,0.00
2023-03-25T07:41:05.942Z,0.00
2023-03-25T07:42:05.971Z,0.00
2023-03-25T07:43:05.913Z,0.00
2023-03-25T07:44:05.880Z,0.00
2023-03-25T07:45:05.885Z,0.00
2023-03-25T07:46:05.845Z,0.00
2023-03-25T07:47:10.706Z,0.00
2023-03-25T07:48:05.894Z,0.00
2023-03-25T07:49:05.808Z,0.00
2023-03-25T07:50:05.834Z,0.00
2023-03-25T07:51:05.830Z,0.00
2023-03-25T07:52:05.775Z,0.00
2023-03-25T07:53:05.772Z,0.00
2023-03-25T07:54:06.239Z,0.00
2023-03-25T07:55:05.770Z,0.00
2023-03-25T07:56:05.747Z,0.00
2023-03-25T07:57:05.820Z,0.00
2023-03-25T07:58:05.736Z,0.00
2023-03-25T07:59:05.754Z,0.00
2023-03-25T08:00:05.733Z,0.00
2023-03-25T08:01:05.705Z,0.00
2023-03-25T08:02:05.787Z,0.00
2023-03-25T08:03:05.909Z,0.00
2023-03-25T08:04:05.711Z,0.00
2023-03-25T08:05:05.679Z,0.00
2023-03-25T08:06:05.653Z,0.00
2023-03-25T08:07:05.628Z,0.00
2023-03-25T08:08:05.630Z,0.00
2023-03-25T08:09:05.658Z,0.00
2023-03-25T08:10:05.597Z,0.00
2023-03-25T08:11:05.589Z,0.00
2023-03-25T08:12:05.560Z,0.00
2023-03-25T08:13:05.588Z,0.00
2023-03-25T08:14:05.587Z,0.00
2023-03-25T08:15:05.603Z,0.00
2023-03-25T08:16:05.614Z,0.00
2023-03-25T08:17:05.561Z,0.00
2023-03-25T08:18:05.566Z,0.00
2023-03-25T08:19:05.535Z,0.00
2023-03-25T08:20:05.511Z,0.00
2023-03-25T08:21:05.539Z,0.00
2023-03-25T08:22:05.481Z,0.00
2023-03-25T08:23:05.452Z,0.00
2023-03-25T08:24:05.433Z,0.00
2023-03-25T08:25:05.433Z,0.00
2023-03-25T08:26:05.481Z,0.00
2023-03-25T08:27:16.165Z,0.00
2023-03-25T08:28:06.389Z,0.00
2023-03-25T08:29:05.374Z,0.00
2023-03-25T08:30:05.403Z,0.00
2023-03-25T08:31:05.369Z,0.00
2023-03-25T08:32:05.433Z,0.00
2023-03-25T08:33:05.461Z,0.00
2023-03-25T08:34:05.353Z,0.00
2023-03-25T08:35:05.315Z,0.00
2023-03-25T08:36:05.346Z,0.00
2023-03-25T08:37:05.299Z,0.00
2023-03-25T08:38:05.347Z,0.00
2023-03-25T08:39:05.344Z,0.00
2023-03-25T08:40:05.334Z,0.00
2023-03-25T08:41:05.290Z,0.00
2023-03-25T08:42:05.245Z,0.00
2023-03-25T08:43:05.251Z,0.00
2023-03-25T08:44:05.301Z,0.00
2023-03-25T08:45:05.243Z,0.00
2023-03-25T08:46:05.263Z,0.00
2023-03-25T08:47:10.236Z,0.00
2023-03-25T08:48:05.249Z,0.00
2023-03-25T08:49:05.272Z,0.00
2023-03-25T08:50:05.208Z,0.00
2023-03-25T08:51:05.251Z,0.00
2023-03-25T08:52:05.223Z,0.00
2023-03-25T08:53:05.165Z,0.00
2023-03-25T08:54:05.132Z,0.00
2023-03-25T08:55:05.092Z,0.00
2023-03-25T08:56:05.078Z,0.00
2023-03-25T08:57:05.092Z,0.00
2023-03-25T08:58:05.149Z,0.00
2023-03-25T08:59:05.049Z,0.00
2023-03-25T09:00:05.124Z,0.00
2023-03-25T09:01:05.043Z,0.00
2023-03-25T09:02:05.043Z,0.00
2023-03-25T09:03:05.164Z,0.00
2023-03-25T09:04:05.030Z,0.00
2023-03-25T09:05:05.030Z,0.00
2023-03-25T09:06:04.976Z,0.00
2023-03-25T09:07:11.500Z,0.10
2023-03-25T09:08:05.958Z,0.20
2023-03-25T09:09:05.209Z,0.20
2023-03-25T09:10:04.959Z,0.20
2023-03-25T09:11:04.927Z,0.10
2023-03-25T09:12:04.947Z,0.10
2023-03-25T09:13:04.918Z,0.00
2023-03-25T09:14:04.916Z,0.10
2023-03-25T09:15:04.874Z,0.20
2023-03-25T09:16:04.905Z,0.40
2023-03-25T09:17:09.667Z,0.20
2023-03-25T09:18:04.963Z,0.10
2023-03-25T09:19:04.833Z,0.20
2023-03-25T09:20:12.362Z,0.20
2023-03-25T09:21:04.813Z,0.10
2023-03-25T09:22:04.818Z,0.10
2023-03-25T09:23:04.813Z,0.10
2023-03-25T09:24:04.819Z,0.10
2023-03-25T09:25:04.767Z,0.10
2023-03-25T09:26:04.777Z,0.10
2023-03-25T09:27:04.756Z,0.10
2023-03-25T09:28:04.738Z,0.00
2023-03-25T09:29:04.755Z,0.00
2023-03-25T09:30:04.754Z,0.00
2023-03-25T09:31:04.755Z,0.00
2023-03-25T09:32:04.689Z,0.00
2023-03-25T09:33:04.755Z,0.00
2023-03-25T09:34:04.758Z,0.00
2023-03-25T09:35:04.704Z,0.00
2023-03-25T09:36:04.689Z,0.00
2023-03-25T09:37:04.710Z,0.10
2023-03-25T09:38:04.641Z,0.10
2023-03-25T09:39:04.636Z,0.10
2023-03-25T09:40:04.678Z,0.00
2023-03-25T09:41:04.607Z,0.10
2023-03-25T09:42:04.615Z,0.10
2023-03-25T09:43:04.621Z,0.10
2023-03-25T09:44:04.564Z,0.10
2023-03-25T09:45:11.949Z,0.10
2023-03-25T09:46:05.549Z,0.00
2023-03-25T09:47:04.611Z,0.10
2023-03-25T09:48:04.590Z,0.10
2023-03-25T09:49:04.510Z,0.10
2023-03-25T09:50:04.504Z,0.20
2023-03-25T09:51:04.480Z,0.20
2023-03-25T09:52:05.149Z,0.30
2023-03-25T09:53:04.483Z,0.20
2023-03-25T09:54:04.486Z,0.10
2023-03-25T09:55:04.460Z,0.10
2023-03-25T09:56:04.446Z,0.10
2023-03-25T09:57:04.484Z,0.10
2023-03-25T09:58:04.501Z,0.10
2023-03-25T09:59:04.409Z,0.10
2023-03-25T10:00:04.405Z,0.10
2023-03-25T10:01:04.443Z,0.10
2023-03-25T10:02:04.419Z,0.10
2023-03-25T10:03:04.402Z,0.10
2023-03-25T10:04:04.380Z,0.10
2023-03-25T10:05:04.472Z,0.10
2023-03-25T10:06:04.353Z,0.10
2023-03-25T10:07:04.321Z,0.10
2023-03-25T10:08:04.321Z,0.10
2023-03-25T10:09:04.371Z,0.10
2023-03-25T10:10:04.288Z,0.00
2023-03-25T10:11:04.280Z,0.10
2023-03-25T10:12:04.288Z,0.10
2023-03-25T10:13:04.312Z,0.10
2023-03-25T10:14:04.270Z,0.10
2023-03-25T10:15:04.250Z,0.00
2023-03-25T10:16:04.264Z,0.00
2023-03-25T10:17:04.280Z,0.00
2023-03-25T10:18:04.267Z,0.00
2023-03-25T10:19:04.200Z,0.00
2023-03-25T10:20:04.210Z,0.10
2023-03-25T10:21:04.182Z,0.30
2023-03-25T10:22:04.167Z,0.30
2023-03-25T10:23:04.157Z,0.30
2023-03-25T10:24:04.272Z,0.20
2023-03-25T10:25:04.113Z,0.30
2023-03-25T10:26:04.108Z,0.60
2023-03-25T10:27:04.103Z,0.80
2023-03-25T10:28:04.106Z,1.10
2023-03-25T10:29:04.120Z,1.40
2023-03-25T10:30:04.085Z,1.70
2023-03-25T10:31:04.059Z,1.70
2023-03-25T10:32:04.081Z,0.60
2023-03-25T10:33:04.102Z,0.40
2023-03-25T10:34:04.031Z,0.30
2023-03-25T10:35:04.053Z,0.30
2023-03-25T10:36:04.051Z,0.30
2023-03-25T10:37:03.996Z,0.50
2023-03-25T10:38:08.715Z,0.40
2023-03-25T10:39:05.024Z,0.60
2023-03-25T10:40:03.980Z,0.80
2023-03-25T10:41:04.017Z,1.20
2023-03-25T10:42:03.968Z,1.20
2023-03-25T10:43:03.983Z,1.70
2023-03-25T10:44:03.953Z,1.70
2023-03-25T10:45:03.925Z,1.30
2023-03-25T10:46:04.016Z,0.90
2023-03-25T10:47:05.942Z,0.80
2023-03-25T10:48:03.952Z,0.70
2023-03-25T10:49:03.869Z,0.70
2023-03-25T10:50:03.927Z,0.60
2023-03-25T10:51:03.918Z,0.60
2023-03-25T10:52:03.894Z,0.60
2023-03-25T10:53:06.016Z,0.70
2023-03-25T10:54:03.820Z,0.90
2023-03-25T10:55:03.838Z,0.50
2023-03-25T10:56:03.828Z,0.70
2023-03-25T10:57:03.813Z,0.40
2023-03-25T10:58:03.766Z,0.60
2023-03-25T10:59:03.765Z,1.20
2023-03-25T11:00:03.778Z,1.70
2023-03-25T11:01:03.743Z,2.00
2023-03-25T11:02:03.811Z,1.60
2023-03-25T11:03:03.865Z,2.10
2023-03-25T11:04:03.740Z,1.00
2023-03-25T11:05:03.708Z,1.10
2023-03-25T11:06:03.691Z,1.50
2023-03-25T11:07:03.680Z,1.30
2023-03-25T11:08:14.666Z,0.60
2023-03-25T11:09:04.680Z,0.30
2023-03-25T11:10:03.645Z,0.30
2023-03-25T11:11:04.938Z,0.20
2023-03-25T11:12:03.659Z,0.20
2023-03-25T11:13:03.617Z,0.10
2023-03-25T11:14:03.659Z,0.10
2023-03-25T11:15:03.619Z,0.10
2023-03-25T11:16:03.704Z,0.10
2023-03-25T11:17:03.594Z,0.00
2023-03-25T11:18:03.630Z,0.00
2023-03-25T11:19:03.552Z,0.00
2023-03-25T11:20:03.538Z,0.00
2023-03-25T11:21:03.557Z,0.00
2023-03-25T11:22:03.542Z,0.00
2023-03-25T11:23:03.515Z,0.20
2023-03-25T11:24:03.494Z,0.10
2023-03-25T11:25:03.472Z,0.10
2023-03-25T11:26:03.495Z,0.10
2023-03-25T11:27:03.508Z,0.40
2023-03-25T11:28:03.465Z,0.40
2023-03-25T11:29:03.440Z,0.20
2023-03-25T11:30:03.480Z,0.50
2023-03-25T11:31:03.450Z,0.40
2023-03-25T11:32:03.439Z,0.50
2023-03-25T11:33:03.439Z,0.70
2023-03-25T11:34:03.453Z,0.50
2023-03-25T11:35:03.372Z,0.60
2023-03-25T11:36:03.413Z,0.30
2023-03-25T11:37:03.345Z,0.50
2023-03-25T11:38:03.398Z,0.60
2023-03-25T11:39:03.316Z,0.80
2023-03-25T11:40:03.406Z,0.60
2023-03-25T11:41:04.188Z,0.40
2023-03-25T11:42:03.294Z,0.40
2023-03-25T11:43:03.343Z,0.40
2023-03-25T11:44:03.305Z,0.60
2023-03-25T11:45:03.311Z,0.20
2023-03-25T11:46:03.309Z,0.10
2023-03-25T11:47:03.324Z,0.20
2023-03-25T11:48:03.286Z,0.20
2023-03-25T11:49:03.222Z,0.10
2023-03-25T11:50:03.254Z,0.20
2023-03-25T11:51:03.252Z,0.30
2023-03-25T11:52:03.190Z,0.30
2023-03-25T11:53:03.208Z,0.30
2023-03-25T11:54:03.258Z,0.20
2023-03-25T11:55:03.170Z,0.20
2023-03-25T11:56:03.150Z,0.10
2023-03-25T11:57:03.204Z,0.00
2023-03-25T11:58:03.216Z,0.00
2023-03-25T11:59:03.107Z,0.00
2023-03-25T12:00:03.103Z,0.00
2023-03-25T12:01:03.103Z,0.00
2023-03-25T12:02:03.130Z,0.00
2023-03-25T12:03:03.161Z,0.00
2023-03-25T12:04:03.111Z,0.00
2023-03-25T12:05:03.060Z,0.00
2023-03-25T12:06:03.172Z,0.00
2023-03-25T12:07:03.030Z,0.00
2023-03-25T12:08:03.020Z,0.00
2023-03-25T12:09:03.026Z,0.00
2023-03-25T12:10:03.014Z,0.00
2023-03-25T12:11:02.994Z,0.00
2023-03-25T12:12:03.019Z,0.00
2023-03-25T12:13:02.954Z,0.00
2023-03-25T12:14:02.942Z,0.00
2023-03-25T12:15:02.941Z,0.00
2023-03-25T12:16:02.995Z,0.00
2023-03-25T12:17:02.969Z,0.00
2023-03-25T12:18:02.992Z,0.00
2023-03-25T12:19:02.896Z,0.00
2023-03-25T12:20:02.886Z,0.00
2023-03-25T12:21:02.881Z,0.00
2023-03-25T12:22:02.970Z,0.00
2023-03-25T12:23:02.859Z,0.00
2023-03-25T12:24:02.839Z,0.00
2023-03-25T12:25:02.838Z,0.00
2023-03-25T12:26:02.826Z,0.00
2023-03-25T12:27:02.844Z,0.00
2023-03-25T12:28:02.826Z,0.00
2023-03-25T12:29:02.817Z,0.00
2023-03-25T12:30:02.836Z,0.00
2023-03-25T12:31:02.800Z,0.00
2023-03-25T12:32:02.781Z,0.00
2023-03-25T12:33:02.812Z,0.00
2023-03-25T12:34:02.759Z,0.00
2023-03-25T12:35:02.785Z,0.00
2023-03-25T12:36:02.819Z,0.00
2023-03-25T12:37:02.712Z,0.00
2023-03-25T12:38:02.739Z,0.00
2023-03-25T12:39:02.689Z,0.00
2023-03-25T12:40:04.124Z,0.00
2023-03-25T12:41:02.683Z,0.00
2023-03-25T12:42:02.645Z,0.00
2023-03-25T12:43:02.639Z,0.00
2023-03-25T12:44:02.639Z,0.00
2023-03-25T12:45:02.680Z,0.00
2023-03-25T12:46:02.712Z,0.00
2023-03-25T12:47:02.640Z,0.00
2023-03-25T12:48:02.645Z,0.00
2023-03-25T12:49:02.590Z,0.00
2023-03-25T12:50:02.624Z,0.00
2023-03-25T12:51:02.557Z,0.00
2023-03-25T12:52:02.554Z,0.00
2023-03-25T12:53:02.563Z,0.00
2023-03-25T12:54:02.556Z,0.00
2023-03-25T12:55:02.551Z,0.00
2023-03-25T12:56:02.514Z,0.00
2023-03-25T12:57:02.545Z,0.00
2023-03-25T12:58:02.493Z,0.00
2023-03-25T12:59:02.487Z,0.10
2023-03-25T13:00:02.474Z,0.10
2023-03-25T13:01:02.507Z,0.20
2023-03-25T13:02:02.505Z,0.20
2023-03-25T13:03:02.619Z,0.10
2023-03-25T13:04:02.414Z,0.30
2023-03-25T13:05:02.454Z,0.00
2023-03-25T13:06:02.421Z,0.10
2023-03-25T13:07:02.414Z,0.00
2023-03-25T13:08:02.394Z,0.00
2023-03-25T13:09:02.385Z,0.00
2023-03-25T13:10:02.400Z,0.00
2023-03-25T13:11:02.341Z,0.00
2023-03-25T13:12:02.357Z,0.00
2023-03-25T13:13:02.355Z,0.00
2023-03-25T13:14:02.300Z,0.00
2023-03-25T13:15:02.313Z,0.00
2023-03-25T13:16:02.298Z,0.00
2023-03-25T13:17:02.296Z,0.00
2023-03-25T13:18:02.274Z,0.00